createdAt,value
2023-01-13T05:17:42.089Z,28.87
2023-01-13T05:20:46.123Z,30.00
2023-01-13T05:24:07.271Z,30.02
2023-01-13T05:27:10.166Z,28.00
2023-01-13T05:30:13.157Z,25.70
2023-01-13T05:33:18.570Z,27.45
2023-01-13T05:36:21.188Z,25.58
2023-01-13T05:39:24.221Z,25.30
2023-01-13T05:42:45.408Z,24.35
2023-01-13T05:45:52.356Z,23.10
2023-01-13T05:48:54.843Z,22.17
2023-01-13T05:51:57.700Z,22.98
2023-01-13T05:55:00.223Z,21.83
2023-01-13T05:58:03.193Z,23.20
2023-01-13T06:01:08.339Z,21.83
2023-01-13T06:04:11.403Z,21.08
2023-01-13T06:07:14.059Z,21.58
2023-01-13T06:10:18.128Z,22.10
2023-01-13T06:13:20.757Z,20.33
2023-01-13T06:16:23.534Z,20.48
2023-01-13T06:19:26.183Z,21.00
2023-01-13T06:22:32.916Z,19.80
2023-01-13T06:25:46.659Z,19.52
2023-01-13T06:28:50.152Z,19.92
2023-01-13T06:31:52.932Z,20.52
2023-01-13T06:35:00.992Z,20.58
2023-01-13T06:38:09.424Z,20.73
2023-01-13T06:41:12.542Z,22.10
2023-01-13T06:44:15.246Z,23.23
2023-01-13T06:47:18.740Z,24.33
2023-01-13T06:50:22.433Z,23.90
2023-01-13T06:53:25.524Z,23.48
2023-01-13T06:56:28.155Z,23.33
2023-01-13T06:59:31.123Z,23.90
2023-01-13T07:02:33.923Z,23.15
2023-01-13T07:05:37.253Z,23.30
2023-01-13T07:08:39.800Z,23.85
2023-01-13T07:11:42.813Z,22.30
2023-01-13T07:15:04.093Z,23.15
2023-01-13T07:18:08.084Z,21.77
2023-01-13T07:21:24.252Z,23.62
2023-01-13T07:24:27.227Z,23.50
2023-01-13T07:27:29.810Z,22.40
2023-01-13T07:30:38.957Z,22.40
2023-01-13T07:33:41.647Z,23.15
2023-01-13T07:40:16.985Z,21.20
2023-01-13T07:43:32.611Z,21.35
2023-01-13T07:54:05.571Z,18.70
2023-01-13T07:57:08.632Z,20.12
2023-01-13T08:00:13.000Z,18.95
2023-01-13T08:03:15.983Z,19.17
2023-01-13T08:06:18.889Z,18.77
2023-01-13T08:09:21.708Z,18.80
2023-01-13T08:12:54.202Z,17.80
2023-01-13T08:16:08.847Z,19.12
2023-01-13T08:19:11.352Z,18.02
2023-01-13T08:22:14.262Z,18.25
2023-01-13T08:25:17.470Z,17.48
2023-01-13T08:28:20.821Z,17.92
2023-01-13T08:31:23.466Z,18.58
2023-01-13T08:34:26.509Z,17.15
2023-01-13T08:37:29.035Z,17.23
2023-01-13T08:40:33.063Z,17.02
2023-01-13T08:43:35.655Z,18.12
2023-01-13T08:46:38.522Z,16.73
2023-01-13T08:49:41.191Z,16.48
2023-01-13T08:52:45.499Z,14.75
2023-01-13T08:55:48.208Z,14.18
2023-01-13T08:58:51.346Z,14.18
2023-01-13T09:01:53.988Z,13.95
2023-01-13T09:04:57.025Z,13.35
2023-01-13T09:07:59.734Z,14.63
2023-01-13T09:11:22.871Z,14.23
2023-01-13T09:14:27.589Z,14.57
2023-01-13T09:17:30.520Z,13.98
2023-01-13T09:20:35.422Z,14.95
2023-01-13T09:23:38.302Z,15.05
2023-01-13T09:26:41.009Z,15.45
2023-01-13T09:29:44.377Z,15.88
2023-01-13T09:32:47.293Z,15.35
2023-01-13T09:35:50.205Z,16.15
2023-01-13T09:38:52.871Z,16.98
2023-01-13T09:42:20.506Z,16.80
2023-01-13T09:45:30.213Z,17.23
2023-01-13T09:48:52.079Z,17.08
2023-01-13T09:52:02.946Z,17.58
2023-01-13T09:55:11.653Z,18.52
2023-01-13T09:58:18.510Z,17.02
2023-01-13T10:01:32.214Z,17.50
2023-01-13T10:04:35.072Z,17.00
2023-01-13T10:07:43.566Z,16.55
2023-01-13T10:10:50.289Z,17.00
2023-01-13T10:13:58.185Z,17.90
2023-01-13T10:17:19.129Z,17.40
2023-01-13T10:20:24.815Z,17.70
2023-01-13T10:23:51.420Z,17.37
2023-01-13T10:27:14.461Z,17.40
2023-01-13T10:30:17.740Z,17.25
2023-01-13T10:33:27.709Z,17.58
2023-01-13T10:36:30.877Z,17.33
2023-01-13T10:40:01.421Z,17.08
2023-01-13T10:43:08.430Z,17.98
2023-01-13T10:46:13.119Z,17.52
2023-01-13T10:49:27.247Z,18.27
2023-01-13T10:52:34.175Z,18.92
2023-01-13T10:55:38.151Z,18.73
2023-01-13T10:58:40.789Z,18.42
2023-01-13T11:02:01.250Z,19.35
2023-01-13T11:08:31.479Z,18.27
2023-01-13T11:11:43.979Z,18.98
2023-01-13T11:14:47.822Z,19.00
2023-01-13T11:18:01.462Z,19.92
2023-01-13T11:21:09.911Z,18.73
2023-01-13T11:24:20.725Z,20.10
2023-01-13T11:30:43.080Z,19.25
2023-01-13T11:33:57.109Z,19.98
2023-01-13T11:37:03.462Z,20.70
2023-01-13T11:40:23.955Z,20.00
2023-01-13T11:43:33.819Z,18.85
2023-01-13T11:46:37.219Z,20.65
2023-01-13T11:49:40.010Z,19.15
2023-01-13T11:53:09.712Z,18.42
2023-01-13T11:56:29.185Z,19.87
2023-01-13T11:59:57.044Z,18.50
2023-01-13T12:03:38.196Z,19.98
2023-01-13T12:06:41.969Z,19.90
2023-01-13T12:09:52.101Z,20.48
2023-01-13T12:13:35.770Z,20.35
2023-01-13T12:16:48.637Z,21.20
2023-01-13T12:19:51.658Z,21.35
2023-01-13T12:22:58.699Z,21.08
2023-01-13T12:26:07.230Z,21.35
2023-01-13T12:29:14.865Z,21.12
2023-01-13T12:32:24.390Z,21.33
2023-01-13T12:36:03.165Z,20.27
2023-01-13T12:39:43.348Z,23.33
2023-01-13T12:43:17.539Z,22.60
2023-01-13T12:46:23.251Z,21.33
2023-01-13T12:49:33.884Z,21.80
2023-01-13T12:52:44.789Z,21.95
2023-01-13T12:55:52.389Z,21.80
2023-01-13T12:59:21.456Z,21.90
2023-01-13T13:02:30.163Z,23.20
2023-01-13T13:05:57.046Z,22.83
2023-01-13T13:09:14.224Z,22.67
2023-01-13T13:12:48.814Z,23.30
2023-01-13T13:15:52.162Z,23.12
2023-01-13T13:19:22.676Z,25.25
2023-01-13T13:22:28.132Z,23.95
2023-01-13T13:25:31.151Z,24.17
2023-01-13T13:28:38.871Z,24.30
2023-01-13T13:31:45.079Z,24.67
2023-01-13T13:34:53.934Z,24.55
2023-01-13T13:38:39.971Z,23.38
2023-01-13T13:42:05.629Z,23.65
2023-01-13T13:45:43.005Z,21.70
2023-01-13T13:48:53.906Z,23.17
2023-01-13T13:52:10.994Z,20.75
2023-01-13T13:55:19.409Z,20.60
2023-01-13T13:58:26.289Z,21.58
2023-01-13T14:01:36.765Z,21.25
2023-01-13T14:04:41.612Z,20.45
2023-01-13T14:07:50.359Z,20.23
2023-01-13T14:10:54.140Z,20.52
2023-01-13T14:14:05.650Z,21.12
2023-01-13T14:17:19.011Z,19.20
2023-01-13T14:20:21.653Z,20.05
2023-01-13T14:23:33.653Z,21.00
2023-01-13T14:26:36.375Z,20.65
2023-01-13T14:29:39.642Z,19.90
2023-01-13T14:32:42.262Z,20.33
2023-01-13T14:36:22.807Z,19.33
2023-01-13T14:39:34.609Z,18.15
2023-01-13T14:42:37.537Z,19.62
2023-01-13T14:45:54.586Z,18.70
2023-01-13T14:49:01.522Z,19.70
2023-01-13T14:52:17.963Z,18.92
2023-01-13T14:55:28.876Z,19.27
2023-01-13T14:58:31.443Z,19.60
2023-01-13T15:01:36.597Z,18.73
2023-01-13T15:04:39.280Z,19.30
2023-01-13T15:07:51.260Z,20.48
2023-01-13T15:10:59.993Z,19.52
2023-01-13T15:14:09.421Z,19.90
2023-01-13T15:17:17.415Z,19.12
2023-01-13T15:20:25.017Z,20.62
2023-01-13T15:23:27.623Z,21.15
2023-01-13T15:26:33.166Z,20.17
2023-01-13T15:29:35.731Z,20.15
2023-01-13T15:32:38.760Z,18.58
2023-01-13T15:35:44.927Z,20.12
2023-01-13T15:38:47.968Z,19.95
2023-01-13T15:42:09.145Z,21.42
2023-01-13T15:45:32.083Z,20.60
2023-01-13T15:48:35.753Z,21.42
2023-01-13T15:51:40.224Z,20.95
2023-01-13T15:54:42.917Z,21.60
2023-01-13T15:57:49.923Z,21.48
2023-01-13T16:00:53.210Z,21.77
2023-01-13T16:03:56.622Z,22.00
2023-01-13T16:06:59.528Z,21.55
2023-01-13T16:10:05.127Z,21.87
2023-01-13T16:13:07.966Z,20.73
2023-01-13T16:16:29.929Z,20.23
2023-01-13T16:19:32.476Z,19.25
2023-01-13T16:22:35.278Z,20.98
2023-01-13T16:25:38.311Z,20.92
2023-01-13T16:28:41.319Z,19.52
2023-01-13T16:31:44.074Z,19.52
